Startpagina
METAR-TAF:

METAR-TAF

Vliegvelden :

Vliegbasis Volkel

Uden, Nederland

breedte: 51-39N, lengte: 005-42E, hoogte: 22 m

Actueel weer

Dit bericht is 16 minuten geleden gemaakt, om 10:25 UTC
Wind 5 kt uit het noordoosten, variërend tussen het westen en het oosten
Temperatuur 19°C
Vochtigheid 60%
Druk 1028 hPa
Zicht 10 km of meer

METAR: EHVK 121025Z AUTO 04005KT 280V090 9999 NCD 19/11 Q1028 BLU

Tijdstip: 12:41 (10:41 UTC)

Verwachting

Dit bericht is 2 uur en het 35 minuten geleden gemaakt, om 08:06 UTC
Verwachting geldig van 12 om 09 UTC tot 12 om 21 UTC
Wind 5 kt uit het noordnoordoosten
Zicht 10 km of meer
Weinig wolken op 2200 ft

TAF: EHVK 120806Z 1209/1221 02005KT 9999 FEW022

Waarnemingen en weersverwachtingen van meer dan 4000 vliegvelden (METAR en TAF).

De beschikbare stations zijn de gele en rode punten op de kaart.

Ga met uw muis naar het station om de naam te zien.

Klik dan om waarnemingen en weersverwachtingen te zien.

kaart wijzigen: klik op de groene knoppen met een zwart kruis om in te zoomen, op de groene knop met een streepje om uit te zoomen of op de groene pijlen voor aangrenzende kaarten.


METAR-TAF: